sensor_id;sensor_type;location;lat;lon;timestamp;P1;durP1;ratioP1;P2;durP2;ratioP2
37973;SDS011;23796;51.458;7.000;2023-10-09T00:01:06;14.52;;;10.60;;
37973;SDS011;23796;51.458;7.000;2023-10-09T00:03:42;14.70;;;10.52;;
37973;SDS011;23796;51.458;7.000;2023-10-09T00:06:15;16.17;;;11.40;;
37973;SDS011;23796;51.458;7.000;2023-10-09T00:08:42;14.23;;;10.07;;
37973;SDS011;23796;51.458;7.000;2023-10-09T00:11:15;16.98;;;10.68;;
37973;SDS011;23796;51.458;7.000;2023-10-09T00:13:47;14.77;;;10.88;;
37973;SDS011;23796;51.458;7.000;2023-10-09T00:16:22;14.13;;;9.77;;
37973;SDS011;23796;51.458;7.000;2023-10-09T00:21:42;15.38;;;9.98;;
37973;SDS011;23796;51.458;7.000;2023-10-09T00:24:12;13.48;;;9.27;;
37973;SDS011;23796;51.458;7.000;2023-10-09T00:26:44;11.85;;;8.90;;
37973;SDS011;23796;51.458;7.000;2023-10-09T00:29:13;14.95;;;9.40;;
37973;SDS011;23796;51.458;7.000;2023-10-09T00:31:53;11.25;;;8.63;;
37973;SDS011;23796;51.458;7.000;2023-10-09T00:34:37;13.25;;;9.05;;
37973;SDS011;23796;51.458;7.000;2023-10-09T00:37:08;14.80;;;8.95;;
37973;SDS011;23796;51.458;7.000;2023-10-09T00:39:50;14.98;;;8.88;;
37973;SDS011;23796;51.458;7.000;2023-10-09T00:42:22;14.30;;;9.07;;
37973;SDS011;23796;51.458;7.000;2023-10-09T00:45:01;13.35;;;8.57;;
37973;SDS011;23796;51.458;7.000;2023-10-09T00:47:30;11.77;;;8.48;;
37973;SDS011;23796;51.458;7.000;2023-10-09T00:50:03;14.30;;;8.30;;
37973;SDS011;23796;51.458;7.000;2023-10-09T00:52:40;12.00;;;8.32;;
37973;SDS011;23796;51.458;7.000;2023-10-09T00:55:14;12.00;;;8.35;;
37973;SDS011;23796;51.458;7.000;2023-10-09T00:57:52;12.27;;;7.70;;
37973;SDS011;23796;51.458;7.000;2023-10-09T01:00:25;11.63;;;8.05;;
37973;SDS011;23796;51.458;7.000;2023-10-09T01:03:06;12.75;;;8.60;;
37973;SDS011;23796;51.458;7.000;2023-10-09T01:05:52;11.82;;;8.05;;
37973;SDS011;23796;51.458;7.000;2023-10-09T01:10:58;12.00;;;8.10;;
37973;SDS011;23796;51.458;7.000;2023-10-09T01:13:45;10.65;;;8.18;;
37973;SDS011;23796;51.458;7.000;2023-10-09T01:16:11;14.35;;;7.93;;
37973;SDS011;23796;51.458;7.000;2023-10-09T01:18:41;11.85;;;8.10;;
37973;SDS011;23796;51.458;7.000;2023-10-09T01:21:07;10.77;;;7.25;;
37973;SDS011;23796;51.458;7.000;2023-10-09T01:23:32;13.23;;;7.82;;
37973;SDS011;23796;51.458;7.000;2023-10-09T01:25:58;10.82;;;7.68;;
37973;SDS011;23796;51.458;7.000;2023-10-09T01:28:24;10.52;;;7.82;;
37973;SDS011;23796;51.458;7.000;2023-10-09T01:30:51;12.55;;;7.95;;
37973;SDS011;23796;51.458;7.000;2023-10-09T01:33:17;12.13;;;7.88;;
37973;SDS011;23796;51.458;7.000;2023-10-09T01:38:19;11.27;;;7.60;;
37973;SDS011;23796;51.458;7.000;2023-10-09T01:40:55;13.32;;;7.78;;
37973;SDS011;23796;51.458;7.000;2023-10-09T01:43:29;11.38;;;7.18;;
37973;SDS011;23796;51.458;7.000;2023-10-09T01:45:59;10.82;;;7.78;;
37973;SDS011;23796;51.458;7.000;2023-10-09T01:48:29;12.18;;;7.53;;
37973;SDS011;23796;51.458;7.000;2023-10-09T01:50:57;12.55;;;7.97;;
37973;SDS011;23796;51.458;7.000;2023-10-09T01:53:25;10.20;;;7.10;;
37973;SDS011;23796;51.458;7.000;2023-10-09T01:55:55;9.57;;;6.78;;
37973;SDS011;23796;51.458;7.000;2023-10-09T01:58:20;11.38;;;7.75;;
37973;SDS011;23796;51.458;7.000;2023-10-09T02:00:46;9.40;;;7.22;;
37973;SDS011;23796;51.458;7.000;2023-10-09T02:03:34;12.35;;;7.03;;
37973;SDS011;23796;51.458;7.000;2023-10-09T02:06:03;8.73;;;6.95;;
37973;SDS011;23796;51.458;7.000;2023-10-09T02:08:30;10.20;;;6.82;;
37973;SDS011;23796;51.458;7.000;2023-10-09T02:11:00;10.60;;;7.07;;
37973;SDS011;23796;51.458;7.000;2023-10-09T02:13:28;11.70;;;7.22;;
37973;SDS011;23796;51.458;7.000;2023-10-09T02:15:59;9.07;;;7.00;;
37973;SDS011;23796;51.458;7.000;2023-10-09T02:18:40;11.18;;;7.38;;
37973;SDS011;23796;51.458;7.000;2023-10-09T02:21:26;10.10;;;7.10;;
37973;SDS011;23796;51.458;7.000;2023-10-09T02:24:05;9.73;;;6.53;;
37973;SDS011;23796;51.458;7.000;2023-10-09T02:26:34;11.57;;;6.95;;
37973;SDS011;23796;51.458;7.000;2023-10-09T02:29:18;10.93;;;7.38;;
37973;SDS011;23796;51.458;7.000;2023-10-09T02:31:49;10.68;;;6.60;;
37973;SDS011;23796;51.458;7.000;2023-10-09T02:34:20;10.20;;;6.45;;
37973;SDS011;23796;51.458;7.000;2023-10-09T02:36:51;11.18;;;7.75;;
37973;SDS011;23796;51.458;7.000;2023-10-09T02:39:31;8.98;;;7.03;;
37973;SDS011;23796;51.458;7.000;2023-10-09T02:42:02;10.13;;;6.95;;
37973;SDS011;23796;51.458;7.000;2023-10-09T02:44:39;11.18;;;6.93;;
37973;SDS011;23796;51.458;7.000;2023-10-09T02:47:11;10.77;;;6.53;;
37973;SDS011;23796;51.458;7.000;2023-10-09T02:49:45;11.48;;;6.85;;
37973;SDS011;23796;51.458;7.000;2023-10-09T02:52:13;8.73;;;6.55;;
37973;SDS011;23796;51.458;7.000;2023-10-09T02:54:43;12.25;;;7.20;;
37973;SDS011;23796;51.458;7.000;2023-10-09T02:57:12;11.30;;;6.78;;
37973;SDS011;23796;51.458;7.000;2023-10-09T02:59:53;10.45;;;6.57;;
37973;SDS011;23796;51.458;7.000;2023-10-09T03:02:18;12.23;;;7.05;;
37973;SDS011;23796;51.458;7.000;2023-10-09T03:04:49;10.75;;;7.60;;
37973;SDS011;23796;51.458;7.000;2023-10-09T03:07:14;10.48;;;7.10;;
37973;SDS011;23796;51.458;7.000;2023-10-09T03:09:40;9.88;;;6.72;;
37973;SDS011;23796;51.458;7.000;2023-10-09T03:12:08;8.90;;;7.13;;
37973;SDS011;23796;51.458;7.000;2023-10-09T03:14:37;9.32;;;6.45;;
37973;SDS011;23796;51.458;7.000;2023-10-09T03:17:03;10.07;;;6.85;;
37973;SDS011;23796;51.458;7.000;2023-10-09T03:19:31;11.55;;;7.38;;
37973;SDS011;23796;51.458;7.000;2023-10-09T03:22:02;9.70;;;6.40;;
37973;SDS011;23796;51.458;7.000;2023-10-09T03:24:29;12.63;;;7.03;;
37973;SDS011;23796;51.458;7.000;2023-10-09T03:26:56;9.70;;;7.03;;
37973;SDS011;23796;51.458;7.000;2023-10-09T03:29:22;11.70;;;7.03;;
37973;SDS011;23796;51.458;7.000;2023-10-09T03:31:49;10.60;;;6.70;;
37973;SDS011;23796;51.458;7.000;2023-10-09T03:34:17;9.07;;;6.63;;
37973;SDS011;23796;51.458;7.000;2023-10-09T03:36:48;8.77;;;6.68;;
37973;SDS011;23796;51.458;7.000;2023-10-09T03:39:24;8.88;;;6.28;;
37973;SDS011;23796;51.458;7.000;2023-10-09T03:42:06;10.48;;;6.47;;
37973;SDS011;23796;51.458;7.000;2023-10-09T03:44:44;9.32;;;6.75;;
37973;SDS011;23796;51.458;7.000;2023-10-09T03:47:14;9.52;;;6.15;;
37973;SDS011;23796;51.458;7.000;2023-10-09T03:49:42;8.63;;;6.65;;
37973;SDS011;23796;51.458;7.000;2023-10-09T03:52:10;8.38;;;6.18;;
37973;SDS011;23796;51.458;7.000;2023-10-09T03:54:36;10.82;;;6.13;;
37973;SDS011;23796;51.458;7.000;2023-10-09T03:57:03;9.75;;;6.40;;
37973;SDS011;23796;51.458;7.000;2023-10-09T03:59:28;9.57;;;6.85;;
37973;SDS011;23796;51.458;7.000;2023-10-09T04:01:57;8.38;;;6.40;;
37973;SDS011;23796;51.458;7.000;2023-10-09T04:04:23;10.32;;;6.35;;
37973;SDS011;23796;51.458;7.000;2023-10-09T04:06:50;11.75;;;6.90;;
37973;SDS011;23796;51.458;7.000;2023-10-09T04:09:19;9.05;;;6.55;;
37973;SDS011;23796;51.458;7.000;2023-10-09T04:11:45;10.02;;;6.35;;
37973;SDS011;23796;51.458;7.000;2023-10-09T04:14:36;9.65;;;6.38;;
37973;SDS011;23796;51.458;7.000;2023-10-09T04:17:14;11.00;;;6.35;;
37973;SDS011;23796;51.458;7.000;2023-10-09T04:19:49;14.00;;;6.60;;
37973;SDS011;23796;51.458;7.000;2023-10-09T04:22:38;9.75;;;6.82;;
37973;SDS011;23796;51.458;7.000;2023-10-09T04:25:07;11.77;;;6.90;;
37973;SDS011;23796;51.458;7.000;2023-10-09T04:27:42;11.65;;;6.68;;
37973;SDS011;23796;51.458;7.000;2023-10-09T04:30:10;9.05;;;6.38;;
37973;SDS011;23796;51.458;7.000;2023-10-09T04:32:41;8.68;;;5.97;;
37973;SDS011;23796;51.458;7.000;2023-10-09T04:37:41;8.63;;;6.45;;
37973;SDS011;23796;51.458;7.000;2023-10-09T04:40:09;9.38;;;5.82;;
37973;SDS011;23796;51.458;7.000;2023-10-09T04:42:58;10.20;;;6.57;;
37973;SDS011;23796;51.458;7.000;2023-10-09T04:45:24;8.57;;;6.35;;
37973;SDS011;23796;51.458;7.000;2023-10-09T04:48:08;9.23;;;6.00;;
37973;SDS011;23796;51.458;7.000;2023-10-09T04:50:34;8.65;;;6.13;;
37973;SDS011;23796;51.458;7.000;2023-10-09T04:53:00;10.65;;;6.30;;
37973;SDS011;23796;51.458;7.000;2023-10-09T04:55:39;11.30;;;6.97;;
37973;SDS011;23796;51.458;7.000;2023-10-09T04:58:19;9.70;;;6.93;;
37973;SDS011;23796;51.458;7.000;2023-10-09T05:03:22;11.02;;;6.60;;
37973;SDS011;23796;51.458;7.000;2023-10-09T05:06:10;9.07;;;5.95;;
37973;SDS011;23796;51.458;7.000;2023-10-09T05:08:46;10.40;;;6.82;;
37973;SDS011;23796;51.458;7.000;2023-10-09T05:11:14;8.43;;;6.50;;
37973;SDS011;23796;51.458;7.000;2023-10-09T05:13:59;10.82;;;6.25;;
37973;SDS011;23796;51.458;7.000;2023-10-09T05:16:37;10.75;;;6.43;;
37973;SDS011;23796;51.458;7.000;2023-10-09T05:19:19;8.90;;;6.20;;
37973;SDS011;23796;51.458;7.000;2023-10-09T05:22:23;9.45;;;6.50;;
37973;SDS011;23796;51.458;7.000;2023-10-09T05:24:58;8.90;;;5.82;;
37973;SDS011;23796;51.458;7.000;2023-10-09T05:27:24;10.07;;;6.10;;
37973;SDS011;23796;51.458;7.000;2023-10-09T05:30:09;9.65;;;6.60;;
37973;SDS011;23796;51.458;7.000;2023-10-09T05:32:49;8.23;;;6.07;;
37973;SDS011;23796;51.458;7.000;2023-10-09T05:35:23;8.85;;;5.88;;
37973;SDS011;23796;51.458;7.000;2023-10-09T05:38:04;8.90;;;6.15;;
37973;SDS011;23796;51.458;7.000;2023-10-09T05:40:48;11.68;;;6.60;;
37973;SDS011;23796;51.458;7.000;2023-10-09T05:43:19;10.32;;;6.88;;
37973;SDS011;23796;51.458;7.000;2023-10-09T05:46:04;9.55;;;6.72;;
37973;SDS011;23796;51.458;7.000;2023-10-09T05:48:40;8.63;;;6.63;;
37973;SDS011;23796;51.458;7.000;2023-10-09T05:51:08;11.27;;;7.25;;
37973;SDS011;23796;51.458;7.000;2023-10-09T05:53:59;8.50;;;6.25;;
37973;SDS011;23796;51.458;7.000;2023-10-09T05:56:37;10.52;;;6.05;;
37973;SDS011;23796;51.458;7.000;2023-10-09T05:59:23;10.30;;;6.53;;
37973;SDS011;23796;51.458;7.000;2023-10-09T06:02:07;9.35;;;5.90;;
37973;SDS011;23796;51.458;7.000;2023-10-09T06:04:53;8.52;;;6.40;;
37973;SDS011;23796;51.458;7.000;2023-10-09T06:07:22;9.23;;;6.50;;
37973;SDS011;23796;51.458;7.000;2023-10-09T06:10:11;9.55;;;6.38;;
37973;SDS011;23796;51.458;7.000;2023-10-09T06:12:57;13.23;;;6.47;;
37973;SDS011;23796;51.458;7.000;2023-10-09T06:15:28;9.90;;;5.72;;
37973;SDS011;23796;51.458;7.000;2023-10-09T06:18:08;8.25;;;6.40;;
37973;SDS011;23796;51.458;7.000;2023-10-09T06:20:58;9.85;;;6.18;;
37973;SDS011;23796;51.458;7.000;2023-10-09T06:23:55;8.00;;;5.90;;
37973;SDS011;23796;51.458;7.000;2023-10-09T06:26:42;11.32;;;6.75;;
37973;SDS011;23796;51.458;7.000;2023-10-09T06:29:28;9.30;;;6.00;;
37973;SDS011;23796;51.458;7.000;2023-10-09T06:32:07;9.07;;;6.32;;
37973;SDS011;23796;51.458;7.000;2023-10-09T06:35:01;10.43;;;6.97;;
37973;SDS011;23796;51.458;7.000;2023-10-09T06:38:02;10.88;;;7.35;;
37973;SDS011;23796;51.458;7.000;2023-10-09T06:43:01;8.30;;;6.45;;
37973;SDS011;23796;51.458;7.000;2023-10-09T06:45:35;9.07;;;6.07;;
37973;SDS011;23796;51.458;7.000;2023-10-09T06:48:19;11.95;;;6.55;;
37973;SDS011;23796;51.458;7.000;2023-10-09T06:51:03;9.35;;;6.22;;
37973;SDS011;23796;51.458;7.000;2023-10-09T06:53:48;10.13;;;6.60;;
37973;SDS011;23796;51.458;7.000;2023-10-09T06:56:20;9.88;;;6.93;;
37973;SDS011;23796;51.458;7.000;2023-10-09T06:59:02;9.95;;;7.00;;
37973;SDS011;23796;51.458;7.000;2023-10-09T07:01:39;11.80;;;7.20;;
37973;SDS011;23796;51.458;7.000;2023-10-09T07:04:08;8.73;;;6.63;;
37973;SDS011;23796;51.458;7.000;2023-10-09T07:06:55;10.10;;;7.13;;
37973;SDS011;23796;51.458;7.000;2023-10-09T07:09:22;12.32;;;7.55;;
37973;SDS011;23796;51.458;7.000;2023-10-09T07:11:49;11.30;;;8.52;;
37973;SDS011;23796;51.458;7.000;2023-10-09T07:16:57;10.43;;;7.25;;
37973;SDS011;23796;51.458;7.000;2023-10-09T07:19:28;10.38;;;8.02;;
37973;SDS011;23796;51.458;7.000;2023-10-09T07:22:07;9.52;;;7.07;;
37973;SDS011;23796;51.458;7.000;2023-10-09T07:24:54;9.63;;;7.53;;
37973;SDS011;23796;51.458;7.000;2023-10-09T07:27:39;9.43;;;7.28;;
37973;SDS011;23796;51.458;7.000;2023-10-09T07:30:17;9.68;;;7.72;;
37973;SDS011;23796;51.458;7.000;2023-10-09T07:32:56;9.95;;;7.60;;
37973;SDS011;23796;51.458;7.000;2023-10-09T07:35:44;11.30;;;7.95;;
37973;SDS011;23796;51.458;7.000;2023-10-09T07:40:45;11.30;;;7.50;;
37973;SDS011;23796;51.458;7.000;2023-10-09T07:43:41;8.88;;;7.05;;
37973;SDS011;23796;51.458;7.000;2023-10-09T07:46:12;11.60;;;6.80;;
37973;SDS011;23796;51.458;7.000;2023-10-09T07:49:17;11.52;;;7.70;;
37973;SDS011;23796;51.458;7.000;2023-10-09T07:51:50;10.68;;;7.68;;
37973;SDS011;23796;51.458;7.000;2023-10-09T07:54:17;14.18;;;7.65;;
37973;SDS011;23796;51.458;7.000;2023-10-09T07:56:57;11.57;;;7.65;;
37973;SDS011;23796;51.458;7.000;2023-10-09T07:59:34;11.73;;;7.85;;
37973;SDS011;23796;51.458;7.000;2023-10-09T08:02:06;11.98;;;7.28;;
37973;SDS011;23796;51.458;7.000;2023-10-09T08:04:38;11.27;;;7.00;;
37973;SDS011;23796;51.458;7.000;2023-10-09T08:07:05;9.23;;;7.35;;
37973;SDS011;23796;51.458;7.000;2023-10-09T08:09:35;10.77;;;7.85;;
37973;SDS011;23796;51.458;7.000;2023-10-09T08:12:14;11.00;;;8.30;;
37973;SDS011;23796;51.458;7.000;2023-10-09T08:15:03;10.23;;;7.65;;
37973;SDS011;23796;51.458;7.000;2023-10-09T08:17:44;10.25;;;6.80;;
37973;SDS011;23796;51.458;7.000;2023-10-09T08:20:24;8.63;;;6.50;;
37973;SDS011;23796;51.458;7.000;2023-10-09T08:22:53;10.32;;;7.65;;
37973;SDS011;23796;51.458;7.000;2023-10-09T08:27:56;9.98;;;7.18;;
37973;SDS011;23796;51.458;7.000;2023-10-09T08:30:24;11.27;;;7.95;;
37973;SDS011;23796;51.458;7.000;2023-10-09T08:32:51;10.95;;;7.00;;
37973;SDS011;23796;51.458;7.000;2023-10-09T08:35:30;10.15;;;6.93;;
37973;SDS011;23796;51.458;7.000;2023-10-09T08:38:14;9.90;;;7.32;;
37973;SDS011;23796;51.458;7.000;2023-10-09T08:40:42;10.35;;;7.35;;
37973;SDS011;23796;51.458;7.000;2023-10-09T08:45:52;9.60;;;7.40;;
37973;SDS011;23796;51.458;7.000;2023-10-09T08:48:19;11.23;;;7.90;;
37973;SDS011;23796;51.458;7.000;2023-10-09T08:50:51;9.05;;;7.10;;
37973;SDS011;23796;51.458;7.000;2023-10-09T08:53:23;9.40;;;7.85;;
37973;SDS011;23796;51.458;7.000;2023-10-09T08:55:49;12.00;;;8.02;;
37973;SDS011;23796;51.458;7.000;2023-10-09T08:58:16;10.77;;;7.82;;
37973;SDS011;23796;51.458;7.000;2023-10-09T09:00:46;11.32;;;8.05;;
37973;SDS011;23796;51.458;7.000;2023-10-09T09:03:15;11.18;;;7.10;;
37973;SDS011;23796;51.458;7.000;2023-10-09T09:05:45;10.55;;;7.43;;
37973;SDS011;23796;51.458;7.000;2023-10-09T09:08:24;13.60;;;8.45;;
37973;SDS011;23796;51.458;7.000;2023-10-09T09:11:03;11.73;;;8.05;;
37973;SDS011;23796;51.458;7.000;2023-10-09T09:16:31;11.50;;;8.27;;
37973;SDS011;23796;51.458;7.000;2023-10-09T09:19:01;9.90;;;6.75;;
37973;SDS011;23796;51.458;7.000;2023-10-09T09:21:30;12.60;;;8.48;;
37973;SDS011;23796;51.458;7.000;2023-10-09T09:24:06;11.00;;;8.43;;
37973;SDS011;23796;51.458;7.000;2023-10-09T09:26:51;15.40;;;8.55;;
37973;SDS011;23796;51.458;7.000;2023-10-09T09:32:10;11.15;;;7.07;;
37973;SDS011;23796;51.458;7.000;2023-10-09T09:37:18;10.55;;;6.95;;
37973;SDS011;23796;51.458;7.000;2023-10-09T09:39:53;12.13;;;7.95;;
37973;SDS011;23796;51.458;7.000;2023-10-09T09:42:21;9.60;;;6.53;;
37973;SDS011;23796;51.458;7.000;2023-10-09T09:44:51;9.75;;;6.80;;
37973;SDS011;23796;51.458;7.000;2023-10-09T09:47:17;10.18;;;7.40;;
37973;SDS011;23796;51.458;7.000;2023-10-09T09:50:04;8.52;;;6.82;;
37973;SDS011;23796;51.458;7.000;2023-10-09T09:52:49;10.13;;;7.20;;
37973;SDS011;23796;51.458;7.000;2023-10-09T09:55:18;11.00;;;7.07;;
37973;SDS011;23796;51.458;7.000;2023-10-09T09:57:47;13.20;;;7.30;;
37973;SDS011;23796;51.458;7.000;2023-10-09T10:00:16;11.25;;;7.78;;
37973;SDS011;23796;51.458;7.000;2023-10-09T10:03:40;9.93;;;7.03;;
37973;SDS011;23796;51.458;7.000;2023-10-09T10:06:01;11.63;;;6.15;;
37973;SDS011;23796;51.458;7.000;2023-10-09T10:08:34;11.40;;;6.68;;
37973;SDS011;23796;51.458;7.000;2023-10-09T10:11:04;12.32;;;7.10;;
37973;SDS011;23796;51.458;7.000;2023-10-09T10:13:54;14.05;;;8.15;;
37973;SDS011;23796;51.458;7.000;2023-10-09T10:16:24;10.57;;;7.07;;
37973;SDS011;23796;51.458;7.000;2023-10-09T10:19:03;9.00;;;6.68;;
37973;SDS011;23796;51.458;7.000;2023-10-09T10:21:39;8.13;;;6.45;;
37973;SDS011;23796;51.458;7.000;2023-10-09T10:24:40;11.85;;;7.30;;
37973;SDS011;23796;51.458;7.000;2023-10-09T10:27:36;11.55;;;7.93;;
37973;SDS011;23796;51.458;7.000;2023-10-09T10:30:34;12.45;;;7.72;;
37973;SDS011;23796;51.458;7.000;2023-10-09T10:35:21;13.65;;;7.72;;
37973;SDS011;23796;51.458;7.000;2023-10-09T10:41:07;11.60;;;7.73;;
37973;SDS011;23796;51.458;7.000;2023-10-09T10:43:43;10.25;;;7.40;;
37973;SDS011;23796;51.458;7.000;2023-10-09T10:46:15;12.23;;;7.82;;
37973;SDS011;23796;51.458;7.000;2023-10-09T10:49:00;11.70;;;6.97;;
37973;SDS011;23796;51.458;7.000;2023-10-09T10:51:46;10.20;;;7.35;;
37973;SDS011;23796;51.458;7.000;2023-10-09T10:54:26;11.68;;;7.43;;
37973;SDS011;23796;51.458;7.000;2023-10-09T10:57:28;11.27;;;7.40;;
37973;SDS011;23796;51.458;7.000;2023-10-09T10:59:54;9.27;;;6.80;;
37973;SDS011;23796;51.458;7.000;2023-10-09T11:02:43;10.35;;;6.95;;
37973;SDS011;23796;51.458;7.000;2023-10-09T11:05:09;10.55;;;6.47;;
37973;SDS011;23796;51.458;7.000;2023-10-09T11:07:48;13.23;;;7.88;;
37973;SDS011;23796;51.458;7.000;2023-10-09T11:10:21;12.13;;;7.30;;
37973;SDS011;23796;51.458;7.000;2023-10-09T11:12:56;13.52;;;8.02;;
37973;SDS011;23796;51.458;7.000;2023-10-09T11:15:33;13.00;;;7.43;;
37973;SDS011;23796;51.458;7.000;2023-10-09T11:18:25;12.60;;;6.65;;
37973;SDS011;23796;51.458;7.000;2023-10-09T11:20:53;11.75;;;7.57;;
37973;SDS011;23796;51.458;7.000;2023-10-09T11:23:42;10.43;;;7.15;;
37973;SDS011;23796;51.458;7.000;2023-10-09T11:26:17;13.43;;;7.55;;
37973;SDS011;23796;51.458;7.000;2023-10-09T11:28:46;9.40;;;7.40;;
37973;SDS011;23796;51.458;7.000;2023-10-09T11:31:38;17.40;;;8.27;;
37973;SDS011;23796;51.458;7.000;2023-10-09T11:34:05;9.23;;;6.93;;
37973;SDS011;23796;51.458;7.000;2023-10-09T11:36:54;13.38;;;8.50;;
37973;SDS011;23796;51.458;7.000;2023-10-09T11:39:37;12.15;;;7.82;;
37973;SDS011;23796;51.458;7.000;2023-10-09T11:42:16;12.05;;;7.78;;
37973;SDS011;23796;51.458;7.000;2023-10-09T11:45:03;10.88;;;8.27;;
37973;SDS011;23796;51.458;7.000;2023-10-09T11:47:45;10.48;;;7.40;;
37973;SDS011;23796;51.458;7.000;2023-10-09T11:53:42;11.95;;;7.90;;
37973;SDS011;23796;51.458;7.000;2023-10-09T11:56:11;11.27;;;7.88;;
37973;SDS011;23796;51.458;7.000;2023-10-09T11:58:42;12.40;;;7.10;;
37973;SDS011;23796;51.458;7.000;2023-10-09T12:01:11;10.98;;;7.45;;
37973;SDS011;23796;51.458;7.000;2023-10-09T12:03:49;10.98;;;8.32;;
37973;SDS011;23796;51.458;7.000;2023-10-09T12:06:16;11.20;;;8.20;;
37973;SDS011;23796;51.458;7.000;2023-10-09T12:08:49;17.40;;;7.90;;
37973;SDS011;23796;51.458;7.000;2023-10-09T12:11:16;12.70;;;7.85;;
37973;SDS011;23796;51.458;7.000;2023-10-09T12:13:50;12.20;;;7.57;;
37973;SDS011;23796;51.458;7.000;2023-10-09T12:16:21;12.50;;;7.75;;
37973;SDS011;23796;51.458;7.000;2023-10-09T12:18:47;11.85;;;7.25;;
37973;SDS011;23796;51.458;7.000;2023-10-09T12:21:18;13.98;;;8.18;;
37973;SDS011;23796;51.458;7.000;2023-10-09T12:23:44;12.77;;;8.15;;
37973;SDS011;23796;51.458;7.000;2023-10-09T12:26:12;11.52;;;7.78;;
37973;SDS011;23796;51.458;7.000;2023-10-09T12:28:44;10.43;;;7.87;;
37973;SDS011;23796;51.458;7.000;2023-10-09T12:31:15;12.57;;;8.25;;
37973;SDS011;23796;51.458;7.000;2023-10-09T12:33:41;12.32;;;8.15;;
37973;SDS011;23796;51.458;7.000;2023-10-09T12:36:13;13.00;;;8.48;;
37973;SDS011;23796;51.458;7.000;2023-10-09T12:38:46;12.30;;;9.02;;
37973;SDS011;23796;51.458;7.000;2023-10-09T12:41:17;12.98;;;8.35;;
37973;SDS011;23796;51.458;7.000;2023-10-09T12:43:53;12.38;;;8.65;;
37973;SDS011;23796;51.458;7.000;2023-10-09T12:46:19;15.52;;;9.32;;
37973;SDS011;23796;51.458;7.000;2023-10-09T12:48:50;11.90;;;8.07;;
37973;SDS011;23796;51.458;7.000;2023-10-09T12:51:19;10.70;;;8.07;;
37973;SDS011;23796;51.458;7.000;2023-10-09T12:53:45;11.35;;;8.43;;
37973;SDS011;23796;51.458;7.000;2023-10-09T12:56:16;9.75;;;8.27;;
37973;SDS011;23796;51.458;7.000;2023-10-09T12:58:43;13.23;;;7.55;;
37973;SDS011;23796;51.458;7.000;2023-10-09T13:01:18;13.20;;;9.25;;
37973;SDS011;23796;51.458;7.000;2023-10-09T13:03:50;12.00;;;8.18;;
37973;SDS011;23796;51.458;7.000;2023-10-09T13:06:15;12.55;;;8.65;;
37973;SDS011;23796;51.458;7.000;2023-10-09T13:08:49;15.75;;;7.57;;
37973;SDS011;23796;51.458;7.000;2023-10-09T13:11:14;11.60;;;8.40;;
37973;SDS011;23796;51.458;7.000;2023-10-09T13:13:44;11.65;;;9.13;;
37973;SDS011;23796;51.458;7.000;2023-10-09T13:18:48;14.60;;;8.63;;
37973;SDS011;23796;51.458;7.000;2023-10-09T13:21:24;12.25;;;8.82;;
37973;SDS011;23796;51.458;7.000;2023-10-09T13:23:51;15.18;;;8.85;;
37973;SDS011;23796;51.458;7.000;2023-10-09T13:26:19;11.82;;;8.63;;
37973;SDS011;23796;51.458;7.000;2023-10-09T13:28:55;13.18;;;8.45;;
37973;SDS011;23796;51.458;7.000;2023-10-09T13:31:24;13.88;;;9.23;;
37973;SDS011;23796;51.458;7.000;2023-10-09T13:33:51;10.73;;;7.80;;
37973;SDS011;23796;51.458;7.000;2023-10-09T13:36:26;12.80;;;8.32;;
37973;SDS011;23796;51.458;7.000;2023-10-09T13:38:55;10.80;;;7.75;;
37973;SDS011;23796;51.458;7.000;2023-10-09T13:41:22;11.93;;;8.13;;
37973;SDS011;23796;51.458;7.000;2023-10-09T13:43:53;12.77;;;9.07;;
37973;SDS011;23796;51.458;7.000;2023-10-09T13:46:19;14.02;;;9.32;;
37973;SDS011;23796;51.458;7.000;2023-10-09T13:48:45;12.88;;;8.48;;
37973;SDS011;23796;51.458;7.000;2023-10-09T13:51:11;12.75;;;9.15;;
37973;SDS011;23796;51.458;7.000;2023-10-09T13:53:48;13.80;;;9.77;;
37973;SDS011;23796;51.458;7.000;2023-10-09T13:56:17;16.45;;;9.77;;
37973;SDS011;23796;51.458;7.000;2023-10-09T13:58:48;15.73;;;9.82;;
37973;SDS011;23796;51.458;7.000;2023-10-09T14:01:18;16.98;;;10.73;;
37973;SDS011;23796;51.458;7.000;2023-10-09T14:03:57;12.55;;;9.25;;
37973;SDS011;23796;51.458;7.000;2023-10-09T14:06:24;11.75;;;9.60;;
37973;SDS011;23796;51.458;7.000;2023-10-09T14:08:59;16.65;;;9.50;;
37973;SDS011;23796;51.458;7.000;2023-10-09T14:11:35;14.80;;;9.50;;
37973;SDS011;23796;51.458;7.000;2023-10-09T14:14:04;14.85;;;10.65;;
37973;SDS011;23796;51.458;7.000;2023-10-09T14:16:37;18.00;;;10.57;;
37973;SDS011;23796;51.458;7.000;2023-10-09T14:19:07;13.80;;;10.07;;
37973;SDS011;23796;51.458;7.000;2023-10-09T14:21:38;14.45;;;10.70;;
37973;SDS011;23796;51.458;7.000;2023-10-09T14:24:07;14.68;;;10.05;;
37973;SDS011;23796;51.458;7.000;2023-10-09T14:26:42;15.20;;;9.82;;
37973;SDS011;23796;51.458;7.000;2023-10-09T14:29:10;15.43;;;9.82;;
37973;SDS011;23796;51.458;7.000;2023-10-09T14:31:42;14.60;;;9.75;;
37973;SDS011;23796;51.458;7.000;2023-10-09T14:34:08;16.67;;;10.18;;
37973;SDS011;23796;51.458;7.000;2023-10-09T14:36:34;19.08;;;11.00;;
37973;SDS011;23796;51.458;7.000;2023-10-09T14:39:00;14.48;;;10.18;;
37973;SDS011;23796;51.458;7.000;2023-10-09T14:41:27;15.10;;;10.90;;
37973;SDS011;23796;51.458;7.000;2023-10-09T14:43:53;14.40;;;11.30;;
37973;SDS011;23796;51.458;7.000;2023-10-09T14:46:21;14.77;;;11.00;;
37973;SDS011;23796;51.458;7.000;2023-10-09T14:48:54;13.10;;;10.38;;
37973;SDS011;23796;51.458;7.000;2023-10-09T14:51:20;14.38;;;12.00;;
37973;SDS011;23796;51.458;7.000;2023-10-09T14:53:52;13.82;;;10.30;;
37973;SDS011;23796;51.458;7.000;2023-10-09T14:56:26;14.60;;;10.05;;
37973;SDS011;23796;51.458;7.000;2023-10-09T14:58:56;13.82;;;9.57;;
37973;SDS011;23796;51.458;7.000;2023-10-09T15:01:23;12.10;;;9.88;;
37973;SDS011;23796;51.458;7.000;2023-10-09T15:03:56;14.32;;;10.35;;
37973;SDS011;23796;51.458;7.000;2023-10-09T15:06:28;15.07;;;10.32;;
37973;SDS011;23796;51.458;7.000;2023-10-09T15:08:58;14.00;;;10.43;;
37973;SDS011;23796;51.458;7.000;2023-10-09T15:11:32;13.70;;;10.40;;
37973;SDS011;23796;51.458;7.000;2023-10-09T15:14:03;13.30;;;10.13;;
37973;SDS011;23796;51.458;7.000;2023-10-09T15:16:31;15.13;;;10.57;;
37973;SDS011;23796;51.458;7.000;2023-10-09T15:18:58;15.63;;;10.32;;
37973;SDS011;23796;51.458;7.000;2023-10-09T15:21:27;15.52;;;10.98;;
37973;SDS011;23796;51.458;7.000;2023-10-09T15:23:57;14.50;;;10.25;;
37973;SDS011;23796;51.458;7.000;2023-10-09T15:26:24;13.55;;;10.25;;
37973;SDS011;23796;51.458;7.000;2023-10-09T15:28:57;17.58;;;11.30;;
37973;SDS011;23796;51.458;7.000;2023-10-09T15:31:28;13.70;;;10.02;;
37973;SDS011;23796;51.458;7.000;2023-10-09T15:33:56;13.70;;;9.60;;
37973;SDS011;23796;51.458;7.000;2023-10-09T15:36:22;13.65;;;9.82;;
37973;SDS011;23796;51.458;7.000;2023-10-09T15:38:50;14.32;;;10.57;;
37973;SDS011;23796;51.458;7.000;2023-10-09T15:41:16;11.80;;;8.82;;
37973;SDS011;23796;51.458;7.000;2023-10-09T15:43:43;15.57;;;9.45;;
37973;SDS011;23796;51.458;7.000;2023-10-09T15:46:11;11.35;;;9.93;;
37973;SDS011;23796;51.458;7.000;2023-10-09T15:48:39;14.57;;;10.90;;
37973;SDS011;23796;51.458;7.000;2023-10-09T15:51:09;13.82;;;10.27;;
37973;SDS011;23796;51.458;7.000;2023-10-09T15:53:43;13.43;;;10.27;;
37973;SDS011;23796;51.458;7.000;2023-10-09T15:56:10;13.40;;;10.48;;
37973;SDS011;23796;51.458;7.000;2023-10-09T15:58:37;13.98;;;9.88;;
37973;SDS011;23796;51.458;7.000;2023-10-09T16:01:12;16.23;;;10.45;;